Главная страница
METAR-TAF:

METAR-TAF

Аэропорты :

Савонлинна, Финляндия

широта: 61-57N, долгота: 028-57E, высота над уровнем моря: 95 м

Текущие метеонаблюдения

Эта сводка был подготовлена 30 минут назад, в 08:50 UTC
Ветер 7 Узел от восточно-юго-восточный
Температура -9°C
Влажность 85%
Давление 1006 hPa
Видимость: 6000 м
Сплошная облачность на высоте 2900 фута
небольшой снег

METAR: EFSA 170850Z AUTO 12007KT 6000 -SN OVC029 M09/M11 Q1006

Время: 11:20 (09:20 UTC)

Прогноз

Эта сводка был подготовлена 44 минут назад, в 08:36 UTC
Прогноз действительный с 17-го 09 UTC до 17-го 18 UTC
Ветер 7 Узел от восточно-юго-восточный
Видимость: 8000 м
Сплошная облачность на высоте 2000 фута
небольшой снег
временами
С 17-го 09 UTC до 17-го 18 UTC
Видимость: 2500 м

TAF: EFSA 170836Z 1709/1718 12007KT 8000 -SN OVC020 TEMPO 1709/1718 2500

Метеонаблюдения и прогнозы для более 4000 аэропортов (сводки METAR и TAF).

Имеющиеся станции представлены на карте желтыми и красными точками.

Чтобы увидеть название станции, наведите на нее мышь.

Затем щелкните, чтобы увидеть метеонаблюдения и метеопрогнозы.

Управление картой: чтобы увеличить масштаб, щелкните зеленые кнопки с черным крестиком; чтобы уменьшить масштаб, щелкните зеленую кнопку с тире; для просмотра соседних карт щелкайте зеленые стрелки.


METAR-TAF: